Terminal Aerodrome Forecast
Issued by NWS Topeka, KS

Home | Current Version | Previous Version | Graphics & Text | Print | Product List | Glossary On
Versions: 1 2 3 4 5 6 7 8 9 10 11 12 13 14
000
FTUS43 KTOP 182323
TAFTOP
TAF
KTOP 182323Z 1900/1924 32017G24KT P6SM SCT050
     FM190200 33008KT P6SM FEW035 SCT150
     FM190900 33006KT P6SM SCT015
     FM191100 36008KT P6SM FEW250=

USA.gov is the U.S. government's official web portal to all federal, state and local government web resources and services.